Time;durP1;ratioP1;P1;durP2;ratioP2;P2;SDS_P1;SDS_P2;PMS_P1;PMS_P2;Temp;Humidity;BMP_temperature;BMP_pressure;BME280_temperature;BME280_humidity;BME280_pressure;Samples;Min_cycle;Max_cycle;Signal;HPM_P1;HPM_P2
2021/06/25 00:00:22;;;;;;;12.77;9.60;;;;;;;19.77;56.44;99316.59;4920898;29;20040;-84
2021/06/25 00:02:48;;;;;;;20.35;9.48;;;;;;;19.85;56.67;99319.25;4920326;29;20046;-84
2021/06/25 00:05:14;;;;;;;16.27;9.95;;;;;;;19.93;56.14;99316.44;4937873;29;20052;-85
2021/06/25 00:07:40;;;;;;;16.50;9.32;;;;;;;19.95;56.24;99308.97;4936437;29;20410;-85
2021/06/25 00:10:07;;;;;;;15.45;10.10;;;;;;;19.94;56.26;99307.31;4936119;29;20157;-84
2021/06/25 00:12:33;;;;;;;18.27;10.27;;;;;;;19.92;56.08;99308.50;4935799;29;20048;-84
2021/06/25 00:15:00;;;;;;;16.05;9.98;;;;;;;19.85;56.38;99297.53;4937438;29;20075;-86
2021/06/25 00:17:26;;;;;;;23.77;10.55;;;;;;;19.87;56.67;99306.34;4920453;29;20055;-83
2021/06/25 00:19:52;;;;;;;14.70;11.45;;;;;;;19.85;56.94;99308.38;4936045;29;20054;-84
2021/06/25 00:22:17;;;;;;;17.33;11.98;;;;;;;19.81;57.48;99312.50;4920616;29;20581;-85
2021/06/25 00:24:43;;;;;;;18.30;9.73;;;;;;;19.75;57.90;99313.25;4920056;29;20054;-83
2021/06/25 00:27:10;;;;;;;13.15;10.15;;;;;;;19.69;57.70;99313.97;4920271;29;20503;-83
2021/06/25 00:29:36;;;;;;;16.42;9.85;;;;;;;19.57;58.11;99314.34;4920185;29;20040;-84
2021/06/25 00:32:02;;;;;;;15.98;9.95;;;;;;;19.50;58.13;99305.25;4935761;29;20055;-84
2021/06/25 00:34:28;;;;;;;15.20;9.98;;;;;;;19.40;58.27;99312.78;4919752;29;20048;-85
2021/06/25 00:36:54;;;;;;;16.67;9.85;;;;;;;19.30;58.61;99321.16;4920265;29;20412;-84
2021/06/25 00:39:20;;;;;;;16.10;9.55;;;;;;;19.29;58.78;99307.78;4937077;29;20210;-84
2021/06/25 00:41:46;;;;;;;21.23;10.25;;;;;;;19.22;58.58;99302.25;4936021;29;20043;-85
2021/06/25 00:44:19;;;;;;;18.50;9.82;;;;;;;19.27;58.68;99299.84;4920044;29;20091;-81
2021/06/25 00:46:45;;;;;;;18.63;9.82;;;;;;;19.24;58.70;99299.34;4935655;29;20119;-82
2021/06/25 00:49:11;;;;;;;12.80;10.20;;;;;;;19.20;58.93;99309.69;4936655;29;20047;-83
2021/06/25 00:51:37;;;;;;;26.27;10.13;;;;;;;19.25;58.83;99311.88;4919917;29;20051;-82
2021/06/25 00:54:04;;;;;;;18.48;9.88;;;;;;;19.23;58.58;99298.50;4935362;29;20051;-83
2021/06/25 00:56:30;;;;;;;13.73;9.50;;;;;;;19.23;58.90;99297.66;4919851;29;20114;-83
2021/06/25 00:58:55;;;;;;;14.48;9.85;;;;;;;19.25;59.12;99301.88;4936626;29;20055;-82
2021/06/25 01:01:22;;;;;;;12.48;9.93;;;;;;;19.21;59.24;99305.97;4919597;29;20063;-81
2021/06/25 01:03:47;;;;;;;20.60;10.10;;;;;;;19.21;59.47;99314.09;4919277;29;20495;-82
2021/06/25 01:06:13;;;;;;;16.50;9.82;;;;;;;19.32;58.96;99307.41;4920248;29;20469;-83
2021/06/25 01:08:41;;;;;;;16.13;9.75;;;;;;;19.32;59.02;99302.00;4920202;29;20189;-84
2021/06/25 01:11:07;;;;;;;14.30;9.75;;;;;;;19.35;59.04;99304.34;4920329;29;20051;-82
2021/06/25 01:13:33;;;;;;;15.32;9.18;;;;;;;19.45;58.59;99310.38;4936137;29;20058;-87
2021/06/25 01:15:59;;;;;;;17.80;9.15;;;;;;;19.53;58.31;99309.47;4903739;29;20036;-86
2021/06/25 01:18:25;;;;;;;24.80;9.73;;;;;;;19.54;58.16;99306.56;4935967;29;20056;-84
2021/06/25 01:20:55;;;;;;;13.50;9.70;;;;;;;19.55;58.35;99308.25;4903657;29;20079;-85
2021/06/25 01:23:21;;;;;;;17.50;9.60;;;;;;;19.55;58.05;99302.84;4919175;29;20059;-85
2021/06/25 01:25:47;;;;;;;15.80;8.95;;;;;;;19.57;57.92;99306.22;4936266;29;20078;-84
2021/06/25 01:28:13;;;;;;;14.98;9.27;;;;;;;19.55;57.74;99310.97;4938134;29;20411;-86
2021/06/25 01:30:44;;;;;;;13.07;10.20;;;;;;;19.61;57.55;99299.41;4919559;29;20098;-86
2021/06/25 01:33:11;;;;;;;16.38;9.60;;;;;;;19.63;57.43;99300.13;4935025;29;20068;-87
2021/06/25 01:35:54;;;;;;;15.07;9.75;;;;;;;19.64;57.39;99290.94;4921771;29;20047;-85
2021/06/25 01:38:20;;;;;;;11.50;9.15;;;;;;;19.66;57.25;99288.03;4934284;29;20043;-85
2021/06/25 01:40:46;;;;;;;15.95;9.60;;;;;;;19.69;57.17;99284.13;4918899;29;20123;-86
2021/06/25 01:43:13;;;;;;;16.10;9.05;;;;;;;19.74;57.15;99285.25;4934503;29;20506;-84
2021/06/25 01:45:39;;;;;;;20.25;9.75;;;;;;;19.64;57.09;99271.13;4935495;29;20047;-85
2021/06/25 01:48:06;;;;;;;15.13;9.73;;;;;;;19.77;57.11;99278.63;4918483;29;20043;-85
2021/06/25 01:50:39;;;;;;;16.88;9.32;;;;;;;19.85;56.76;99278.53;4918676;29;20040;-84
2021/06/25 01:53:07;;;;;;;14.30;9.70;;;;;;;19.87;56.62;99281.94;4934277;29;20104;-84
2021/06/25 01:55:40;;;;;;;15.53;11.47;;;;;;;19.88;56.84;99284.44;4934458;29;20089;-84
2021/06/25 01:58:17;;;;;;;27.30;9.75;;;;;;;19.97;56.41;99279.81;4905056;29;20043;-84
2021/06/25 02:01:15;;;;;;;23.40;10.18;;;;;;;20.00;56.21;99289.44;4918710;29;20056;-83
2021/06/25 02:03:45;;;;;;;14.65;9.50;;;;;;;19.98;56.12;99269.78;4934309;29;20047;-83
2021/06/25 02:06:11;;;;;;;13.88;9.98;;;;;;;20.12;56.00;99277.09;4903185;29;20569;-83
2021/06/25 02:08:39;;;;;;;17.88;9.15;;;;;;;20.21;55.63;99286.00;4934277;29;20043;-84
2021/06/25 02:11:10;;;;;;;19.35;9.55;;;;;;;20.33;55.67;99289.94;4919204;29;20043;-84
2021/06/25 02:13:36;;;;;;;15.77;9.40;;;;;;;20.52;55.22;99288.56;4902964;29;20479;-86
2021/06/25 02:16:02;;;;;;;13.40;8.70;;;;;;;20.81;54.50;99287.69;4918462;29;20055;-83
2021/06/25 02:18:28;;;;;;;15.45;9.32;;;;;;;20.95;53.66;99294.97;4935439;29;20048;-84
2021/06/25 02:20:54;;;;;;;18.60;9.77;;;;;;;20.96;53.63;99293.94;4902386;29;20050;-85
2021/06/25 02:23:20;;;;;;;20.70;10.25;;;;;;;21.05;53.66;99290.06;4902616;29;20170;-84
2021/06/25 02:25:46;;;;;;;14.77;9.20;;;;;;;21.17;53.47;99286.84;4933678;29;20103;-84
2021/06/25 02:28:12;;;;;;;15.43;9.50;;;;;;;21.25;53.43;99284.00;4902815;29;20066;-83
2021/06/25 02:30:38;;;;;;;18.40;9.35;;;;;;;21.21;53.23;99278.13;4918471;29;20138;-83
2021/06/25 02:33:04;;;;;;;16.08;9.80;;;;;;;21.32;53.30;99279.47;4933682;29;20040;-83
2021/06/25 02:35:30;;;;;;;18.17;9.05;;;;;;;21.41;52.83;99272.09;4936391;29;20406;-83
2021/06/25 02:37:56;;;;;;;17.92;8.77;;;;;;;21.45;52.80;99276.94;4939199;29;20050;-84
2021/06/25 02:40:23;;;;;;;14.07;8.73;;;;;;;21.62;52.70;99273.94;4938163;29;20040;-88
2021/06/25 02:42:49;;;;;;;27.10;9.73;;;;;;;21.70;52.41;99265.63;4922280;29;20497;-84
2021/06/25 02:45:15;;;;;;;21.00;9.68;;;;;;;21.88;52.48;99279.59;4906121;29;20057;-84
2021/06/25 02:47:41;;;;;;;18.25;10.50;;;;;;;22.02;51.99;99272.38;4922081;29;20055;-86
2021/06/25 02:50:08;;;;;;;23.65;9.18;;;;;;;22.15;51.99;99282.53;4922100;29;20478;-82
2021/06/25 02:52:35;;;;;;;27.30;9.63;;;;;;;22.25;51.85;99288.50;4938845;29;20050;-85
2021/06/25 02:55:01;;;;;;;30.75;10.82;;;;;;;22.41;51.50;99293.59;4906014;29;20082;-83
2021/06/25 02:57:27;;;;;;;33.67;9.88;;;;;;;21.94;52.62;99337.84;4938468;29;20098;-84
2021/06/25 02:59:53;;;;;;;17.73;10.73;;;;;;;21.53;53.48;99309.44;4921804;29;20103;-82
2021/06/25 03:02:19;;;;;;;21.38;11.27;;;;;;;21.71;53.68;99302.69;4937627;29;20047;-84
2021/06/25 03:04:45;;;;;;;25.42;12.15;;;;;;;21.79;53.54;99335.22;4921928;29;20569;-84
2021/06/25 03:07:11;;;;;;;25.42;13.30;;;;;;;21.61;54.05;99311.19;4922596;29;20138;-85
2021/06/25 03:09:37;;;;;;;52.60;15.52;;;;;;;21.67;54.63;99287.81;4905412;29;20598;-85
2021/06/25 03:12:04;;;;;;;48.92;17.70;;;;;;;21.72;54.72;99323.41;4921670;29;20063;-87
2021/06/25 03:14:29;;;;;;;47.13;19.13;;;;;;;21.60;54.99;99350.31;4921415;29;20051;-84
2021/06/25 03:16:55;;;;;;;38.75;16.83;;;;;;;21.29;55.30;99286.16;4921919;29;20079;-86
2021/06/25 03:19:21;;;;;;;30.52;13.02;;;;;;;21.19;54.66;99287.50;4921346;29;20163;-86
2021/06/25 03:21:47;;;;;;;24.50;13.60;;;;;;;21.13;54.92;99312.72;4906280;29;20220;-84
2021/06/25 03:24:13;;;;;;;30.95;13.82;;;;;;;21.28;55.17;99321.69;4938460;29;20043;-85
2021/06/25 03:26:39;;;;;;;17.77;10.93;;;;;;;21.39;55.11;99295.91;4938496;29;20050;-85
2021/06/25 03:29:05;;;;;;;21.35;11.52;;;;;;;21.43;54.41;99294.47;4921318;29;20036;-85
2021/06/25 03:31:31;;;;;;;18.48;10.98;;;;;;;21.40;54.72;99275.81;4938068;29;20051;-85
2021/06/25 03:33:57;;;;;;;19.67;11.23;;;;;;;21.46;54.42;99286.75;4906609;29;20043;-84
2021/06/25 03:36:23;;;;;;;23.25;10.55;;;;;;;21.56;53.70;99291.88;4938396;29;20077;-84
2021/06/25 03:38:49;;;;;;;29.52;10.98;;;;;;;21.65;53.90;99289.88;4921858;29;20051;-81
2021/06/25 03:41:15;;;;;;;18.88;10.68;;;;;;;21.92;53.05;99293.66;4946062;29;20048;-80
2021/06/25 03:43:41;;;;;;;17.75;11.52;;;;;;;22.17;53.18;99275.88;4938633;29;20058;-87
2021/06/25 03:46:07;;;;;;;19.77;11.10;;;;;;;22.41;51.82;99269.09;4936651;29;20055;-86
2021/06/25 03:48:33;;;;;;;19.58;11.70;;;;;;;22.63;51.68;99282.63;4937472;29;20075;-92
2021/06/25 03:50:59;;;;;;;21.27;11.43;;;;;;;22.77;52.20;99290.66;4939915;29;20059;-85
2021/06/25 03:53:25;;;;;;;25.27;12.80;;;;;;;22.85;50.57;99273.28;4905949;29;20479;-81
2021/06/25 03:56:12;;;;;;;15.60;11.40;;;;;;;22.96;50.27;99280.06;4937451;29;20051;-86
2021/06/25 03:58:43;;;;;;;23.58;12.10;;;;;;;22.95;50.61;99273.78;4918847;29;20051;-78
2021/06/25 04:01:09;;;;;;;22.90;12.00;;;;;;;23.08;50.39;99266.69;4937490;29;20110;-81
2021/06/25 04:03:39;;;;;;;25.20;12.30;;;;;;;23.25;50.22;99268.84;4920210;29;20423;-82
2021/06/25 04:06:05;;;;;;;25.23;13.02;;;;;;;23.31;49.79;99264.44;4920134;29;20526;-82
2021/06/25 04:08:32;;;;;;;21.58;13.07;;;;;;;23.38;49.89;99248.91;4936929;29;20052;-84
2021/06/25 04:10:59;;;;;;;25.55;13.43;;;;;;;23.50;49.30;99257.31;4936026;29;20396;-85
2021/06/25 04:13:25;;;;;;;26.30;11.95;;;;;;;23.70;48.89;99262.84;4920839;29;20107;-86
2021/06/25 04:15:52;;;;;;;23.52;12.23;;;;;;;23.86;48.34;99251.50;4937506;29;20055;-84
2021/06/25 04:18:18;;;;;;;28.52;12.90;;;;;;;23.87;48.26;99246.88;4920347;29;20131;-82
2021/06/25 04:20:45;;;;;;;31.95;13.23;;;;;;;23.81;48.32;99226.72;4935129;29;20202;-83
2021/06/25 04:23:11;;;;;;;20.10;11.98;;;;;;;23.83;48.68;99240.16;4936265;29;20146;-82
2021/06/25 04:25:37;;;;;;;20.38;12.55;;;;;;;23.97;48.79;99239.09;4935636;29;20048;-83
2021/06/25 04:28:04;;;;;;;20.50;12.20;;;;;;;24.16;48.56;99240.13;4935252;29;20048;-81
2021/06/25 04:30:31;;;;;;;17.20;11.55;;;;;;;24.21;48.71;99232.94;4937165;29;20178;-82
2021/06/25 04:32:59;;;;;;;22.02;12.40;;;;;;;24.39;48.98;99229.56;4935756;29;20135;-87
2021/06/25 04:35:25;;;;;;;24.67;12.07;;;;;;;24.46;48.43;99218.63;4904305;29;20051;-89
2021/06/25 04:37:51;;;;;;;17.02;11.90;;;;;;;24.57;48.25;99217.13;4935231;29;20135;-83
2021/06/25 04:40:17;;;;;;;26.00;12.80;;;;;;;24.59;48.00;99213.09;4936668;29;20130;-83
2021/06/25 04:42:44;;;;;;;23.65;12.15;;;;;;;24.72;48.17;99217.69;4937193;29;20499;-83
2021/06/25 04:45:11;;;;;;;17.55;11.18;;;;;;;24.71;47.81;99213.25;4921330;29;20406;-83
2021/06/25 04:47:40;;;;;;;18.73;12.05;;;;;;;24.78;47.82;99222.25;4889393;29;20051;-86
2021/06/25 04:50:06;;;;;;;20.27;12.30;;;;;;;24.98;47.76;99238.59;4936659;29;20051;-87
2021/06/25 04:52:32;;;;;;;22.65;12.55;;;;;;;25.11;47.50;99248.63;4936599;29;20052;-86
2021/06/25 04:54:58;;;;;;;17.85;11.75;;;;;;;25.09;47.54;99245.28;4936055;29;20233;-83
2021/06/25 04:57:24;;;;;;;20.67;12.25;;;;;;;25.25;47.46;99243.94;4936359;29;20932;-87
2021/06/25 04:59:50;;;;;;;22.40;12.40;;;;;;;25.54;46.90;99247.91;4937811;29;20102;-86
2021/06/25 05:02:16;;;;;;;20.40;12.63;;;;;;;25.72;47.03;99242.50;4922218;29;20094;-84
2021/06/25 05:04:42;;;;;;;17.00;12.00;;;;;;;25.80;46.91;99236.81;4936186;29;20134;-84
2021/06/25 05:07:08;;;;;;;22.50;12.35;;;;;;;25.89;46.82;99229.97;4918488;29;20079;-84
2021/06/25 05:09:34;;;;;;;21.35;12.27;;;;;;;25.90;46.58;99226.16;4934145;29;20059;-85
2021/06/25 05:12:00;;;;;;;19.67;12.60;;;;;;;25.78;46.69;99211.53;4938532;29;20047;-83
2021/06/25 05:14:26;;;;;;;23.13;13.02;;;;;;;25.90;46.36;99206.16;4936222;29;20047;-85
2021/06/25 05:16:52;;;;;;;23.38;13.35;;;;;;;25.79;46.61;99201.41;4935899;29;20557;-88
2021/06/25 05:19:18;;;;;;;29.42;12.93;;;;;;;25.83;46.91;99197.16;4935255;29;20051;-89
2021/06/25 05:21:44;;;;;;;21.08;12.45;;;;;;;26.03;46.77;99202.47;4934996;29;20059;-88
2021/06/25 05:24:10;;;;;;;23.92;13.80;;;;;;;26.14;46.84;99188.03;4935474;29;20071;-85
2021/06/25 05:26:36;;;;;;;25.92;13.15;;;;;;;26.14;47.02;99182.53;4937070;29;20051;-84
2021/06/25 05:29:02;;;;;;;23.20;13.38;;;;;;;26.19;47.19;99177.22;4934642;29;20083;-85
2021/06/25 05:31:28;;;;;;;18.42;12.30;;;;;;;26.27;47.37;99165.94;4918751;29;20130;-88
2021/06/25 05:33:54;;;;;;;21.25;12.35;;;;;;;26.35;47.48;99156.56;4901097;29;20068;-87
2021/06/25 05:36:20;;;;;;;22.90;12.38;;;;;;;26.52;47.51;99154.91;4924109;29;20080;-93
2021/06/25 05:38:46;;;;;;;25.13;14.15;;;;;;;26.67;47.18;99150.91;4934274;29;20112;-87
2021/06/25 05:41:12;;;;;;;29.48;13.45;;;;;;;26.77;47.11;99148.44;4918878;29;20130;-83
2021/06/25 05:43:38;;;;;;;23.08;13.43;;;;;;;26.78;46.99;99147.38;4919595;29;20048;-88
2021/06/25 05:46:04;;;;;;;17.23;12.07;;;;;;;27.00;46.70;99142.19;4917796;29;20563;-87
2021/06/25 05:48:30;;;;;;;17.38;12.68;;;;;;;27.05;46.99;99145.09;4917368;29;20040;-86
2021/06/25 05:50:56;;;;;;;25.23;12.80;;;;;;;27.16;46.56;99133.34;4916878;29;20091;-87
2021/06/25 05:53:22;;;;;;;19.40;12.00;;;;;;;27.34;46.46;99143.38;4925063;29;20107;-88
2021/06/25 05:55:48;;;;;;;22.92;12.80;;;;;;;27.38;46.70;99138.25;4935582;29;20043;-88
2021/06/25 05:58:14;;;;;;;23.23;12.40;;;;;;;27.59;46.38;99141.25;4935987;29;20131;-89
2021/06/25 06:00:40;;;;;;;23.15;12.50;;;;;;;27.81;46.60;99144.28;4935858;29;20531;-89
2021/06/25 06:03:06;;;;;;;26.13;13.38;;;;;;;27.90;45.83;99135.66;4935963;29;20048;-89
2021/06/25 06:05:35;;;;;;;19.05;12.30;;;;;;;27.92;45.46;99133.53;4936631;29;20570;-89
2021/06/25 06:08:03;;;;;;;15.65;12.93;;;;;;;28.08;45.62;99132.78;4935131;29;20326;-86
2021/06/25 06:10:30;;;;;;;21.50;14.80;;;;;;;28.11;45.73;99126.81;4935582;29;20102;-85
2021/06/25 06:12:56;;;;;;;24.60;14.18;;;;;;;28.30;45.37;99144.78;4934877;29;20044;-89
2021/06/25 06:15:22;;;;;;;25.95;12.30;;;;;;;28.59;45.08;99144.88;4940076;29;20471;-87
2021/06/25 06:17:48;;;;;;;20.20;12.75;;;;;;;28.68;44.93;99143.38;4937318;29;20455;-90
2021/06/25 06:20:20;;;;;;;19.48;12.85;;;;;;;28.76;44.71;99151.22;4936028;29;20056;-89
2021/06/25 06:31:10;;;;;;;19.40;11.73;;;;;;;29.14;44.25;99152.50;4935672;29;20128;-86
2021/06/25 06:36:10;;;;;;;19.88;11.68;;;;;;;29.33;44.58;99139.34;4940667;29;20198;-81
2021/06/25 06:38:36;;;;;;;18.77;11.00;;;;;;;29.57;44.00;99145.53;4904057;29;20047;-85
2021/06/25 06:41:02;;;;;;;18.42;10.90;;;;;;;29.76;43.61;99144.19;4936235;29;20055;-85
2021/06/25 06:43:28;;;;;;;15.02;10.18;;;;;;;29.93;43.79;99144.16;4935475;29;20036;-84
2021/06/25 06:45:54;;;;;;;23.20;10.18;;;;;;;30.13;43.68;99143.63;4934233;29;20048;-79
2021/06/25 06:48:20;;;;;;;16.67;9.90;;;;;;;29.86;43.95;99148.16;4934097;29;20051;-80
2021/06/25 06:50:46;;;;;;;17.38;9.18;;;;;;;29.80;43.72;99143.69;4934178;29;20082;-82
2021/06/25 06:53:12;;;;;;;15.40;8.85;;;;;;;29.96;43.54;99140.88;4935260;29;20046;-84
2021/06/25 06:55:42;;;;;;;21.27;8.55;;;;;;;30.24;43.42;99145.44;4933808;29;20059;-84
2021/06/25 06:58:12;;;;;;;19.67;9.27;;;;;;;30.42;43.03;99146.19;4918088;29;20051;-84
2021/06/25 07:00:39;;;;;;;10.68;8.43;;;;;;;30.63;42.23;99141.78;4918349;29;20095;-82
2021/06/25 07:03:05;;;;;;;12.77;8.48;;;;;;;30.89;41.70;99137.38;4902673;29;20039;-82
2021/06/25 07:05:31;;;;;;;12.75;7.47;;;;;;;31.18;41.15;99129.63;4933819;29;20515;-83
2021/06/25 07:07:57;;;;;;;13.40;8.13;;;;;;;31.11;40.79;99131.81;4935311;29;20054;-84
2021/06/25 07:10:23;;;;;;;16.17;7.32;;;;;;;30.79;40.15;99135.34;4934942;29;20143;-84
2021/06/25 07:12:49;;;;;;;9.43;7.50;;;;;;;30.72;40.34;99124.47;4950311;29;20050;-84
2021/06/25 07:15:15;;;;;;;11.15;7.50;;;;;;;30.84;40.50;99127.13;4939148;29;20138;-88
2021/06/25 07:17:41;;;;;;;11.65;7.45;;;;;;;30.89;40.65;99123.59;4938634;29;20462;-88
2021/06/25 07:20:07;;;;;;;13.63;7.68;;;;;;;31.17;40.76;99120.53;4937411;29;20048;-89
2021/06/25 07:22:33;;;;;;;14.93;8.27;;;;;;;31.10;40.95;99125.44;4936184;29;20391;-87
2021/06/25 07:24:59;;;;;;;18.23;7.60;;;;;;;31.20;40.53;99124.69;4937933;29;20130;-90
2021/06/25 07:27:26;;;;;;;17.33;9.45;;;;;;;31.24;40.84;99116.72;4938193;29;20049;-89
2021/06/25 07:29:51;;;;;;;14.63;7.55;;;;;;;31.55;40.54;99109.53;4906506;29;20138;-88
2021/06/25 07:32:17;;;;;;;9.18;7.38;;;;;;;31.73;39.74;99105.50;4953266;29;20398;-91
2021/06/25 07:34:43;;;;;;;11.43;7.63;;;;;;;31.84;39.63;99099.75;4938035;29;20083;-90
2021/06/25 07:37:09;;;;;;;12.98;7.38;;;;;;;32.21;39.33;99106.34;4938140;29;20051;-85
2021/06/25 07:39:35;;;;;;;13.10;7.38;;;;;;;32.13;39.01;99105.75;4936360;29;20091;-83
2021/06/25 07:42:01;;;;;;;13.02;7.45;;;;;;;32.22;39.58;99110.78;4938026;29;20062;-84
2021/06/25 07:44:27;;;;;;;11.15;7.55;;;;;;;32.16;39.22;99087.81;4937900;29;20048;-82
2021/06/25 07:46:53;;;;;;;13.48;7.00;;;;;;;32.36;39.17;99087.03;4937738;29;20043;-84
2021/06/25 07:49:18;;;;;;;8.25;7.40;;;;;;;32.61;39.18;99092.69;4937936;29;20051;-85
2021/06/25 07:51:45;;;;;;;15.93;7.18;;;;;;;32.82;38.24;99095.47;4937933;29;20063;-85
2021/06/25 07:54:11;;;;;;;11.13;7.03;;;;;;;32.86;38.00;99093.81;4937844;29;20043;-85
2021/06/25 07:56:37;;;;;;;9.07;7.07;;;;;;;32.87;38.28;99092.69;4937602;29;20051;-83
2021/06/25 07:59:03;;;;;;;12.52;7.05;;;;;;;33.16;37.73;99090.28;4938354;29;20047;-84
2021/06/25 08:01:29;;;;;;;13.13;7.32;;;;;;;33.21;37.78;99086.66;4936467;29;20039;-86
2021/06/25 08:03:54;;;;;;;7.32;6.63;;;;;;;33.07;37.52;99087.22;4937795;29;20143;-86
2021/06/25 08:06:20;;;;;;;11.48;6.80;;;;;;;32.97;37.81;99073.38;4920931;29;20090;-85
2021/06/25 08:08:46;;;;;;;13.43;7.03;;;;;;;33.16;37.67;99073.66;4936253;29;20056;-85
2021/06/25 08:11:12;;;;;;;13.02;6.95;;;;;;;33.39;36.90;99082.50;4936360;29;20134;-85
2021/06/25 08:13:38;;;;;;;11.32;5.85;;;;;;;33.21;35.50;99078.34;4938018;29;20122;-86
2021/06/25 08:16:05;;;;;;;9.95;5.68;;;;;;;33.54;34.74;99076.97;4937398;29;20044;-85
2021/06/25 08:18:30;;;;;;;14.52;5.38;;;;;;;33.57;34.10;99080.00;4920353;29;20055;-86
2021/06/25 08:20:56;;;;;;;13.13;5.70;;;;;;;33.89;33.98;99070.50;4937306;29;20407;-85
2021/06/25 08:23:22;;;;;;;7.47;5.35;;;;;;;33.90;33.55;99082.44;4936158;29;20048;-84
2021/06/25 08:25:48;;;;;;;12.23;5.15;;;;;;;33.41;33.55;99075.59;4937125;29;20051;-85
2021/06/25 08:28:14;;;;;;;11.25;5.40;;;;;;;33.27;34.28;99080.03;4936193;29;20051;-85
2021/06/25 08:30:40;;;;;;;9.52;5.20;;;;;;;33.55;34.28;99081.38;4937074;29;20079;-86
2021/06/25 08:33:06;;;;;;;12.02;5.50;;;;;;;33.31;34.51;99081.13;4936880;29;20135;-87
2021/06/25 08:35:32;;;;;;;13.02;5.93;;;;;;;33.58;34.18;99061.44;4936957;29;20151;-87
2021/06/25 08:37:57;;;;;;;12.38;6.35;;;;;;;33.52;33.50;99082.81;4936990;29;20462;-86
2021/06/25 08:40:24;;;;;;;11.05;6.07;;;;;;;33.35;33.82;99071.13;4936987;29;20063;-83
2021/06/25 08:42:49;;;;;;;14.68;5.63;;;;;;;33.37;33.57;99071.72;4921433;29;20069;-86
2021/06/25 08:45:16;;;;;;;13.38;5.80;;;;;;;33.09;34.00;99067.56;4935490;29;20130;-84
2021/06/25 08:47:52;;;;;;;10.55;6.25;;;;;;;32.86;34.63;99068.91;4936981;29;20048;-87
2021/06/25 08:50:22;;;;;;;9.43;5.53;;;;;;;32.95;34.74;99058.13;4889742;29;20530;-83
2021/06/25 08:52:52;;;;;;;12.05;5.07;;;;;;;32.89;34.61;99063.66;4936088;29;20106;-81
2021/06/25 08:55:18;;;;;;;8.93;6.05;;;;;;;32.74;34.66;99068.34;4919630;29;20114;-82
2021/06/25 08:57:44;;;;;;;14.60;6.10;;;;;;;32.96;34.87;99052.34;4936606;29;20156;-78
2021/06/25 09:00:12;;;;;;;14.25;5.90;;;;;;;33.32;34.46;99055.91;4936703;29;20039;-83
2021/06/25 09:02:38;;;;;;;10.27;5.35;;;;;;;33.82;33.93;99039.50;4935060;29;20086;-79
2021/06/25 09:05:09;;;;;;;12.30;5.60;;;;;;;33.45;34.17;99054.50;4936334;29;20102;-80
2021/06/25 09:07:42;;;;;;;13.23;5.60;;;;;;;33.56;34.30;99047.88;4920040;29;20095;-78
2021/06/25 09:10:12;;;;;;;15.82;6.15;;;;;;;33.71;33.93;99046.19;4919283;29;20047;-82
2021/06/25 09:12:38;;;;;;;8.73;5.43;;;;;;;33.30;34.79;99043.47;4934996;29;20043;-82
2021/06/25 09:15:07;;;;;;;14.57;5.53;;;;;;;33.19;35.17;99042.63;4934952;29;20048;-83
2021/06/25 09:17:34;;;;;;;14.43;5.65;;;;;;;33.23;35.06;99051.22;4935046;29;20082;-81
2021/06/25 09:20:04;;;;;;;10.45;5.85;;;;;;;33.69;34.50;99049.22;4936510;29;20098;-81
2021/06/25 09:22:31;;;;;;;11.88;5.88;;;;;;;33.69;34.38;99028.97;4934946;29;20090;-80
2021/06/25 09:25:02;;;;;;;10.38;5.70;;;;;;;33.80;34.63;99033.38;4936037;29;20466;-82
2021/06/25 09:27:28;;;;;;;12.20;5.97;;;;;;;34.03;34.41;99037.47;4903490;29;20418;-82
2021/06/25 09:29:55;;;;;;;12.40;5.70;;;;;;;34.33;33.79;99014.28;4903481;29;20082;-83
2021/06/25 09:32:20;;;;;;;22.10;6.07;;;;;;;34.31;33.37;99022.09;4936470;29;20416;-79
2021/06/25 09:34:49;;;;;;;13.93;5.50;;;;;;;34.28;33.96;99022.66;4935896;29;20115;-79
2021/06/25 09:37:17;;;;;;;9.23;5.15;;;;;;;34.25;33.76;99017.69;4903564;29;20053;-80
2021/06/25 09:40:03;;;;;;;7.63;5.40;;;;;;;34.75;33.23;99007.38;4918967;29;20487;-79
2021/06/25 09:42:29;;;;;;;8.38;5.30;;;;;;;34.82;32.56;99010.66;4934421;29;20075;-80
2021/06/25 09:45:07;;;;;;;12.65;5.88;;;;;;;34.57;32.85;98997.81;4932595;29;20044;-80
2021/06/25 09:47:40;;;;;;;;;;;;;;;34.76;32.83;99004.31;4888042;29;20063;-78
2021/06/25 09:50:19;;;;;;;18.58;6.20;;;;;;;35.18;32.15;98990.94;4934842;29;19923;-79
2021/06/25 09:52:53;;;;;;;16.45;5.60;;;;;;;34.99;32.95;99002.75;4919184;29;20511;-80
2021/06/25 09:55:49;;;;;;;15.63;5.97;;;;;;;35.07;32.38;99001.31;4887028;29;20040;-78
2021/06/25 09:58:40;;;;;;;12.30;5.53;;;;;;;35.43;32.22;99003.72;4920567;29;20517;-77
2021/06/25 10:01:28;;;;;;;9.57;5.28;;;;;;;35.36;32.16;98995.75;4920476;29;20067;-78
2021/06/25 10:03:56;;;;;;;17.15;5.43;;;;;;;36.34;31.63;98999.00;4902420;29;20047;-79
2021/06/25 10:06:23;;;;;;;;;;;;;;;36.38;31.05;98983.34;4887754;29;20043;-78
2021/06/25 10:08:50;;;;;;;;;;;;;;;36.50;30.59;98984.88;4935327;29;19926;-78
2021/06/25 10:11:18;;;;;;;15.23;5.43;;;;;;;37.06;30.17;98992.34;4902696;29;19922;-79
2021/06/25 10:13:45;;;;;;;;;;;;;;;37.21;30.11;98989.28;4934371;29;20138;-78
2021/06/25 10:16:11;;;;;;;16.98;5.00;;;;;;;36.76;29.75;98972.19;4934590;29;19930;-77
2021/06/25 10:18:38;;;;;;;13.77;5.30;;;;;;;36.94;29.54;98971.38;4935368;29;20039;-78
2021/06/25 10:21:05;;;;;;;15.73;5.40;;;;;;;36.60;30.01;98960.50;4902595;29;20051;-79
2021/06/25 10:23:35;;;;;;;14.73;5.53;;;;;;;36.53;30.28;98967.59;4918740;29;20055;-78
2021/06/25 10:26:06;;;;;;;10.50;5.32;;;;;;;36.99;29.88;98958.47;4918334;29;20048;-80
2021/06/25 10:28:33;;;;;;;11.70;5.38;;;;;;;37.53;29.14;98959.69;4934697;29;20054;-80
2021/06/25 10:31:00;;;;;;;18.13;5.05;;;;;;;38.13;28.22;98967.91;4933860;29;20045;-81
2021/06/25 10:33:25;;;;;;;15.38;4.80;;;;;;;37.81;28.23;98966.09;4949494;28;20134;-79
2021/06/25 10:35:51;;;;;;;13.48;5.10;;;;;;;38.56;28.23;98962.75;4918539;29;20058;-83
2021/06/25 10:38:19;;;;;;;12.63;4.80;;;;;;;39.47;27.24;98966.28;4934257;29;20047;-84
2021/06/25 10:40:54;;;;;;;8.93;4.75;;;;;;;39.69;26.38;98969.03;4934426;29;20048;-83
2021/06/25 10:43:39;;;;;;;14.63;4.63;;;;;;;40.25;25.39;98958.94;4919335;29;20047;-84
2021/06/25 10:46:05;;;;;;;12.02;4.88;;;;;;;40.54;25.50;98961.06;4934517;29;20138;-84
2021/06/25 10:48:38;;;;;;;13.00;4.78;;;;;;;40.42;25.08;98971.28;4913824;29;20052;-84
2021/06/25 10:51:21;;;;;;;11.38;4.45;;;;;;;40.81;25.28;98975.06;4914459;29;20043;-84
2021/06/25 10:54:18;;;;;;;14.52;4.80;;;;;;;40.43;25.25;98975.72;4934336;29;20131;-83
2021/06/25 10:56:50;;;;;;;10.27;4.43;;;;;;;40.77;24.73;98978.56;4919977;29;20126;-84
2021/06/25 10:59:31;;;;;;;12.60;5.18;;;;;;;40.80;24.91;98979.88;4939553;29;20491;-84
2021/06/25 11:01:58;;;;;;;15.00;4.82;;;;;;;40.80;24.55;98990.25;4938848;29;20498;-85
2021/06/25 11:04:30;;;;;;;14.18;4.72;;;;;;;40.85;24.96;98987.28;4938252;29;20073;-84
2021/06/25 11:06:56;;;;;;;10.68;4.63;;;;;;;40.64;24.89;98993.56;4934234;29;20063;-84
2021/06/25 11:09:22;;;;;;;8.85;4.13;;;;;;;40.91;24.92;98974.75;4902585;29;20443;-85
2021/06/25 11:11:49;;;;;;;13.00;4.78;;;;;;;41.63;24.49;98981.47;4918277;29;20123;-85
2021/06/25 11:14:25;;;;;;;14.00;4.60;;;;;;;41.98;23.79;98979.34;4887473;29;20368;-86
2021/06/25 11:16:52;;;;;;;11.13;4.77;;;;;;;42.12;23.48;98979.06;4918594;29;20484;-84
2021/06/25 11:19:36;;;;;;;20.67;4.53;;;;;;;41.54;23.63;98981.53;4918194;29;20044;-84
2021/06/25 11:22:03;;;;;;;16.45;5.05;;;;;;;40.80;24.63;98987.44;4918504;29;20083;-86
2021/06/25 11:24:49;;;;;;;10.73;4.50;;;;;;;40.91;25.03;98980.34;4887708;29;20048;-85
2021/06/25 11:27:15;;;;;;;15.82;4.68;;;;;;;41.44;24.64;98984.69;4918171;29;20454;-81
2021/06/25 11:29:49;;;;;;;14.60;4.80;;;;;;;42.31;23.87;98970.19;4918042;29;20052;-85
2021/06/25 11:32:35;;;;;;;17.88;4.63;;;;;;;42.54;23.58;98970.66;4934034;29;20431;-84
2021/06/25 11:35:37;;;;;;;15.95;4.72;;;;;;;42.35;23.49;98960.72;4918993;29;20056;-84
2021/06/25 11:38:03;;;;;;;11.60;4.50;;;;;;;41.52;24.30;98972.59;4918440;29;20519;-81